createdAt,value
2023-02-22T00:01:28.638Z,100810.06
2023-02-22T00:03:31.475Z,100799.34
2023-02-22T00:05:33.334Z,100808.38
2023-02-22T00:07:34.712Z,100816.91
2023-02-22T00:09:36.166Z,100819.94
2023-02-22T00:11:37.922Z,100819.22
2023-02-22T00:13:39.335Z,100828.63
2023-02-22T00:15:41.136Z,100821.94
2023-02-22T00:17:43.542Z,100827.41
2023-02-22T00:19:44.946Z,100828.34
2023-02-22T00:21:52.073Z,100830.75
2023-02-22T00:23:53.812Z,100837.06
2023-02-22T00:25:56.758Z,100837.09
2023-02-22T00:27:58.261Z,100843.66
2023-02-22T00:30:00.213Z,100846.38
2023-02-22T00:32:01.758Z,100847.84
2023-02-22T00:34:03.233Z,100857.50
2023-02-22T00:36:05.165Z,100850.69
2023-02-22T00:38:07.565Z,100857.97
2023-02-22T00:40:15.499Z,100846.66
2023-02-22T00:42:18.508Z,100865.47
2023-02-22T00:44:19.893Z,100870.59
2023-02-22T00:46:21.338Z,100871.03
2023-02-22T00:48:23.014Z,100872.47
2023-02-22T00:50:27.353Z,100875.34
2023-02-22T00:52:28.814Z,100882.34
2023-02-22T00:54:30.935Z,100874.16
2023-02-22T00:56:33.854Z,100882.63
2023-02-22T00:58:35.282Z,100884.31
2023-02-22T01:00:40.308Z,100889.22
2023-02-22T01:02:42.899Z,100893.72
2023-02-22T01:04:44.707Z,100890.38
2023-02-22T01:06:46.484Z,100887.75
2023-02-22T01:08:48.740Z,100877.38
2023-02-22T01:10:50.166Z,100890.59
2023-02-22T01:12:52.669Z,100877.41
2023-02-22T01:14:54.063Z,100879.22
2023-02-22T01:16:56.279Z,100873.00
2023-02-22T01:18:57.925Z,100895.94
2023-02-22T01:20:59.341Z,100881.94
2023-02-22T01:23:02.380Z,100898.97
2023-02-22T01:25:04.523Z,100866.44
2023-02-22T01:27:05.932Z,100884.41
2023-02-22T01:29:07.330Z,100908.34
2023-02-22T01:31:09.048Z,100893.78
2023-02-22T01:33:10.941Z,100912.28
2023-02-22T01:35:16.766Z,100906.50
2023-02-22T01:37:18.300Z,100893.84
2023-02-22T01:39:20.306Z,100915.06
2023-02-22T01:41:21.860Z,100908.13
2023-02-22T01:43:32.412Z,100916.25
2023-02-22T01:45:33.821Z,100868.56
2023-02-22T01:47:35.206Z,100923.16
2023-02-22T01:49:41.623Z,100920.56
2023-02-22T01:51:48.911Z,100921.41
2023-02-22T01:53:56.951Z,100921.16
2023-02-22T01:55:59.402Z,100903.00
2023-02-22T01:58:02.053Z,100905.72
2023-02-22T02:00:14.110Z,100916.22
2023-02-22T02:02:16.546Z,100886.75
2023-02-22T02:04:21.500Z,100915.28
2023-02-22T02:06:22.936Z,100916.00
2023-02-22T02:08:33.875Z,100918.53
2023-02-22T02:10:35.597Z,100914.91
2023-02-22T02:12:37.322Z,100906.94
2023-02-22T02:14:41.199Z,100918.94
2023-02-22T02:16:51.784Z,100922.91
2023-02-22T02:18:54.581Z,100910.31
2023-02-22T02:21:08.208Z,100930.78
2023-02-22T02:23:24.965Z,100928.50
2023-02-22T02:25:41.629Z,100930.16
2023-02-22T02:28:13.719Z,100925.34
2023-02-22T02:30:35.367Z,100935.75
2023-02-22T02:32:52.222Z,100932.16
2023-02-22T02:35:22.529Z,100934.66
2023-02-22T02:37:41.902Z,100940.84
2023-02-22T02:39:53.372Z,100939.72
2023-02-22T02:41:56.656Z,100936.50
2023-02-22T02:44:28.816Z,100941.22
2023-02-22T02:46:44.153Z,100943.84
2023-02-22T02:48:52.555Z,100939.81
2023-02-22T02:50:57.351Z,100941.41
2023-02-22T02:53:02.653Z,100946.81
2023-02-22T02:55:06.556Z,100952.50
2023-02-22T02:57:08.141Z,100926.22
2023-02-22T02:59:29.330Z,100950.38
2023-02-22T03:02:01.680Z,100946.63
2023-02-22T03:04:09.664Z,100950.38
2023-02-22T03:06:40.786Z,100952.53
2023-02-22T03:08:48.145Z,100956.28
2023-02-22T03:10:52.742Z,100968.75
2023-02-22T03:13:05.460Z,100965.69
2023-02-22T03:15:25.043Z,100968.22
2023-02-22T03:17:31.970Z,100961.34
2023-02-22T03:19:38.233Z,100970.28
2023-02-22T03:22:01.471Z,100966.53
2023-02-22T03:24:19.421Z,100957.47
2023-02-22T03:26:29.297Z,100956.81
2023-02-22T03:28:33.392Z,100971.69
2023-02-22T03:30:42.687Z,100969.78
2023-02-22T03:32:49.128Z,100965.16
2023-02-22T03:34:58.240Z,100983.13
2023-02-22T03:37:05.523Z,100945.72
2023-02-22T03:39:11.878Z,100960.78
2023-02-22T03:41:17.850Z,100963.03
2023-02-22T03:43:25.506Z,100989.94
2023-02-22T03:45:30.224Z,100979.56
2023-02-22T03:47:41.125Z,100972.16
2023-02-22T03:49:58.275Z,100996.28
2023-02-22T03:52:00.118Z,100994.66
2023-02-22T03:54:03.184Z,100945.63
2023-02-22T03:56:07.661Z,100982.97
2023-02-22T03:58:14.132Z,100997.41
2023-02-22T04:00:19.566Z,101003.31
2023-02-22T04:02:20.975Z,100981.13
2023-02-22T04:04:24.207Z,100982.81
2023-02-22T04:09:24.797Z,100973.72
2023-02-22T04:11:26.376Z,100995.53
2023-02-22T04:13:28.157Z,101009.66
2023-02-22T04:15:29.900Z,101008.03
2023-02-22T04:17:31.477Z,100996.81
2023-02-22T04:19:32.930Z,100995.91
2023-02-22T04:21:34.705Z,101006.00
2023-02-22T04:23:36.121Z,101014.03
2023-02-22T04:25:37.572Z,101014.25
2023-02-22T04:27:39.170Z,101013.19
2023-02-22T04:29:40.834Z,100980.91
2023-02-22T04:31:42.301Z,101015.81
2023-02-22T04:33:43.871Z,101015.19
2023-02-22T04:35:45.313Z,101023.69
2023-02-22T04:37:46.761Z,101026.59
2023-02-22T04:39:48.410Z,101016.13
2023-02-22T04:41:49.863Z,101023.59
2023-02-22T04:43:51.388Z,101023.44
2023-02-22T04:45:52.867Z,101002.41
2023-02-22T04:47:54.279Z,101020.13
2023-02-22T04:49:55.738Z,100997.41
2023-02-22T04:51:57.266Z,101006.19
2023-02-22T04:53:58.699Z,101016.41
2023-02-22T04:56:00.175Z,100982.50
2023-02-22T04:58:01.737Z,100999.38
2023-02-22T05:00:05.175Z,101020.50
2023-02-22T05:02:06.614Z,101018.09
2023-02-22T05:04:08.191Z,101008.53
2023-02-22T05:06:09.767Z,101034.91
2023-02-22T05:08:11.178Z,101029.97
2023-02-22T05:10:12.628Z,101030.53
2023-02-22T05:12:14.042Z,101018.25
2023-02-22T05:14:15.540Z,101035.78
2023-02-22T05:16:17.330Z,101038.94
2023-02-22T05:18:18.761Z,101047.28
2023-02-22T05:20:29.699Z,101050.53
2023-02-22T05:22:31.199Z,101036.47
2023-02-22T05:24:32.595Z,101034.38
2023-02-22T05:26:34.015Z,101037.38
2023-02-22T05:28:35.413Z,101052.16
2023-02-22T05:30:37.372Z,101056.56
2023-02-22T05:32:38.841Z,101056.88
2023-02-22T05:34:40.431Z,101051.72
2023-02-22T05:36:41.987Z,101047.47
2023-02-22T05:38:43.525Z,101061.69
2023-02-22T05:40:45.070Z,101043.69
2023-02-22T05:42:48.956Z,101060.56
2023-02-22T05:44:50.473Z,101064.97
2023-02-22T05:46:52.224Z,101069.84
2023-02-22T05:48:53.636Z,101047.09
2023-02-22T05:50:55.032Z,101064.44
2023-02-22T05:52:56.737Z,101076.31
2023-02-22T05:54:58.258Z,101079.31
2023-02-22T05:56:59.722Z,101069.22
2023-02-22T05:59:01.481Z,101057.84
2023-02-22T06:01:03.441Z,101063.53
2023-02-22T06:03:07.625Z,101087.91
2023-02-22T06:05:09.437Z,101089.88
2023-02-22T06:07:10.865Z,101093.72
2023-02-22T06:09:12.325Z,101074.84
2023-02-22T06:11:14.214Z,101094.44
2023-02-22T06:13:15.643Z,101070.28
2023-02-22T06:15:18.759Z,101097.00
2023-02-22T06:17:20.677Z,101103.00
2023-02-22T06:19:22.736Z,101093.56
2023-02-22T06:21:24.124Z,101112.25
2023-02-22T06:23:26.726Z,101122.28
2023-02-22T06:25:30.047Z,101108.97
2023-02-22T06:27:32.425Z,101121.13
2023-02-22T06:29:34.062Z,101085.53
2023-02-22T06:31:35.781Z,101119.31
2023-02-22T06:33:37.333Z,101119.25
2023-02-22T06:35:38.920Z,101121.31
2023-02-22T06:37:40.421Z,101114.91
2023-02-22T06:39:41.859Z,101124.03
2023-02-22T06:41:45.657Z,101131.97
2023-02-22T06:43:47.930Z,101131.06
2023-02-22T06:45:49.442Z,101133.03
2023-02-22T06:47:51.152Z,101135.00
2023-02-22T06:49:54.143Z,101135.81
2023-02-22T06:51:55.586Z,101135.84
2023-02-22T06:53:57.279Z,101117.31
2023-02-22T06:55:58.956Z,101138.66
2023-02-22T06:58:01.421Z,101142.69
2023-02-22T07:00:03.161Z,101136.88
2023-02-22T07:02:04.560Z,101142.94
2023-02-22T07:04:05.994Z,101154.31
2023-02-22T07:06:08.614Z,101158.34
2023-02-22T07:08:10.496Z,101140.03
2023-02-22T07:10:27.987Z,101158.66
2023-02-22T07:12:29.885Z,101156.88
2023-02-22T07:14:31.306Z,101157.06
2023-02-22T07:16:32.786Z,101161.03
2023-02-22T07:18:34.445Z,101166.63
2023-02-22T07:20:36.055Z,101148.81
2023-02-22T07:22:38.814Z,101172.25
2023-02-22T07:24:40.216Z,101175.13
2023-02-22T07:26:42.174Z,101171.88
2023-02-22T07:28:43.606Z,101179.50
2023-02-22T07:30:45.241Z,101177.22
2023-02-22T07:32:47.413Z,101174.03
2023-02-22T07:34:48.856Z,101167.56
2023-02-22T07:36:50.580Z,101161.84
2023-02-22T07:38:51.995Z,101175.63
2023-02-22T07:40:53.520Z,101175.38
2023-02-22T07:42:56.931Z,101174.03
2023-02-22T07:44:58.346Z,101169.53
2023-02-22T07:46:59.756Z,101166.50
2023-02-22T07:49:01.320Z,101174.53
2023-02-22T07:51:02.793Z,101178.75
2023-02-22T07:53:07.229Z,101174.38
2023-02-22T07:55:08.810Z,101173.44
2023-02-22T07:57:10.220Z,101166.72
2023-02-22T07:59:11.624Z,101151.38
2023-02-22T08:01:13.229Z,101172.47
2023-02-22T08:03:17.249Z,101182.06
2023-02-22T08:05:19.399Z,101181.19
2023-02-22T08:07:21.155Z,101159.00
2023-02-22T08:09:22.554Z,101179.72
2023-02-22T08:11:25.177Z,101186.59
2023-02-22T08:13:26.672Z,101181.25
2023-02-22T08:15:33.950Z,101190.47
2023-02-22T08:17:35.527Z,101188.88
2023-02-22T08:19:37.290Z,101176.78
2023-02-22T08:21:38.709Z,101187.75
2023-02-22T08:23:40.087Z,101192.53
2023-02-22T08:25:41.977Z,101196.94
2023-02-22T08:27:43.974Z,101180.69
2023-02-22T08:29:47.676Z,101191.25
2023-02-22T08:31:52.300Z,101189.03
2023-02-22T08:33:53.764Z,101196.91
2023-02-22T08:35:55.187Z,101197.00
2023-02-22T08:38:00.425Z,101205.22
2023-02-22T08:40:01.835Z,101180.63
2023-02-22T08:42:03.631Z,101205.75
2023-02-22T08:44:05.223Z,101197.47
2023-02-22T08:46:06.660Z,101191.41
2023-02-22T08:48:08.047Z,101210.47
2023-02-22T08:50:15.599Z,101207.97
2023-02-22T08:52:17.026Z,101207.97
2023-02-22T08:54:18.770Z,101205.41
2023-02-22T08:56:20.974Z,101179.69
2023-02-22T08:58:22.357Z,101211.19
2023-02-22T09:00:23.930Z,101214.41
2023-02-22T09:02:25.896Z,101209.03
2023-02-22T09:04:27.312Z,101218.28
2023-02-22T09:06:29.549Z,101202.81
2023-02-22T09:08:31.200Z,101217.09
2023-02-22T09:10:34.501Z,101221.53
2023-02-22T09:12:35.900Z,101225.84
2023-02-22T09:14:38.229Z,101228.59
2023-02-22T09:16:40.898Z,101230.66
2023-02-22T09:18:44.244Z,101232.72
2023-02-22T09:20:46.560Z,101233.25
2023-02-22T09:22:49.188Z,101237.91
2023-02-22T09:24:52.383Z,101221.78
2023-02-22T09:26:54.297Z,101244.03
2023-02-22T09:28:55.709Z,101238.91
2023-02-22T09:30:57.126Z,101236.56
2023-02-22T09:33:05.489Z,101242.66
2023-02-22T09:35:07.478Z,101235.50
2023-02-22T09:37:08.876Z,101243.00
2023-02-22T09:39:10.554Z,101243.72
2023-02-22T09:41:27.908Z,101243.22
2023-02-22T09:43:41.715Z,101242.22
2023-02-22T09:46:09.379Z,101243.41
2023-02-22T09:48:21.625Z,101244.13
2023-02-22T09:50:28.071Z,101233.69
2023-02-22T09:52:35.786Z,101232.38
2023-02-22T09:54:44.073Z,101222.63
2023-02-22T09:56:48.685Z,101234.00
2023-02-22T09:58:55.394Z,101234.53
2023-02-22T10:01:00.963Z,101235.53
2023-02-22T10:03:25.031Z,101249.00
2023-02-22T10:05:34.278Z,101235.97
2023-02-22T10:07:56.927Z,101239.31
2023-02-22T10:09:59.469Z,101219.19
2023-02-22T10:12:10.250Z,101231.03
2023-02-22T10:14:48.796Z,101235.00
2023-02-22T10:17:08.891Z,101242.09
2023-02-22T10:19:37.904Z,101234.50
2023-02-22T10:21:51.507Z,101238.50
2023-02-22T10:24:24.206Z,101236.84
2023-02-22T10:26:28.782Z,101222.63
2023-02-22T10:28:42.348Z,101247.59
2023-02-22T10:31:03.928Z,101243.94
2023-02-22T10:33:13.889Z,101242.94
2023-02-22T10:35:21.013Z,101227.06
2023-02-22T10:37:28.878Z,101242.25
2023-02-22T10:39:36.872Z,101249.59
2023-02-22T10:41:46.780Z,101246.00
2023-02-22T10:43:48.187Z,101243.28
2023-02-22T10:45:54.009Z,101237.44
2023-02-22T10:47:57.561Z,101234.00
2023-02-22T10:50:00.543Z,101244.69
2023-02-22T10:52:04.596Z,101242.22
2023-02-22T10:54:15.202Z,101240.91
2023-02-22T10:56:22.456Z,101237.38
2023-02-22T10:58:24.309Z,101241.69
2023-02-22T11:00:38.316Z,101245.47
2023-02-22T11:02:49.603Z,101249.69
2023-02-22T11:04:54.294Z,101240.72
2023-02-22T11:06:58.827Z,101250.78
2023-02-22T11:09:18.012Z,101243.91
2023-02-22T11:11:25.119Z,101249.16
2023-02-22T11:13:38.653Z,101235.53
2023-02-22T11:15:40.099Z,101226.41
2023-02-22T11:17:42.127Z,101223.44
2023-02-22T11:19:48.534Z,101250.31
2023-02-22T11:22:26.825Z,101254.41
2023-02-22T11:24:34.610Z,101250.53
2023-02-22T11:26:48.744Z,101246.66
2023-02-22T11:28:52.304Z,101232.75
2023-02-22T11:30:54.016Z,101252.44
2023-02-22T11:33:20.117Z,101266.81
2023-02-22T11:35:37.037Z,101261.94
2023-02-22T11:37:38.694Z,101251.06
2023-02-22T11:39:40.163Z,101252.59
2023-02-22T11:41:41.612Z,101266.22
2023-02-22T11:43:48.957Z,101271.19
2023-02-22T11:46:01.098Z,101252.13
2023-02-22T11:48:06.585Z,101239.66
2023-02-22T11:50:21.393Z,101263.88
2023-02-22T11:52:32.858Z,101264.03
2023-02-22T11:55:04.568Z,101272.59
2023-02-22T11:57:28.320Z,101273.91
2023-02-22T11:59:53.314Z,101277.38
2023-02-22T12:02:13.197Z,101278.56
2023-02-22T12:04:41.275Z,101274.75
2023-02-22T12:06:47.505Z,101274.06
2023-02-22T12:09:12.197Z,101279.78
2023-02-22T12:11:32.661Z,101280.09
2023-02-22T12:13:45.249Z,101263.84
2023-02-22T12:15:58.456Z,101275.56
2023-02-22T12:18:03.070Z,101276.69
2023-02-22T12:20:14.989Z,101282.63
2023-02-22T12:22:26.161Z,101290.59
2023-02-22T12:24:36.243Z,101287.16
2023-02-22T12:26:41.119Z,101284.03
2023-02-22T12:28:58.749Z,101293.25
2023-02-22T12:31:10.673Z,101293.25
2023-02-22T12:33:18.822Z,101300.56
2023-02-22T12:35:25.184Z,101289.44
2023-02-22T12:37:56.389Z,101287.28
2023-02-22T12:40:23.631Z,101286.59
2023-02-22T12:42:47.095Z,101289.91
2023-02-22T12:44:58.209Z,101294.41
2023-02-22T12:46:59.925Z,101273.56
2023-02-22T12:49:38.228Z,101294.22
2023-02-22T12:51:45.819Z,101300.38
2023-02-22T12:53:59.295Z,101284.56
2023-02-22T12:56:17.550Z,101298.25
2023-02-22T12:58:29.616Z,101280.25
2023-02-22T13:00:42.521Z,101298.78
2023-02-22T13:02:50.999Z,101274.28
2023-02-22T13:04:53.460Z,101301.34
2023-02-22T13:07:05.475Z,101305.72
2023-02-22T13:09:13.069Z,101298.41
2023-02-22T13:11:17.873Z,101302.00
2023-02-22T13:13:32.344Z,101296.94
2023-02-22T13:16:08.247Z,101301.03
2023-02-22T13:18:51.211Z,101302.03
2023-02-22T13:21:22.842Z,101298.47
2023-02-22T13:23:39.546Z,101299.09
2023-02-22T13:25:48.439Z,101303.59
2023-02-22T13:28:06.014Z,101299.19
2023-02-22T13:30:18.477Z,101288.06
2023-02-22T13:32:37.754Z,101303.50
2023-02-22T13:34:56.828Z,101283.38
2023-02-22T13:37:22.343Z,101274.91
2023-02-22T13:39:42.315Z,101285.97
2023-02-22T13:41:51.793Z,101294.59
2023-02-22T13:44:14.593Z,101295.25
2023-02-22T13:46:16.502Z,101295.06
2023-02-22T13:48:52.251Z,101296.31
2023-02-22T13:51:11.883Z,101304.91
2023-02-22T13:53:21.514Z,101302.63
2023-02-22T13:55:27.685Z,101301.00
2023-02-22T13:57:43.675Z,101308.34
2023-02-22T13:59:45.161Z,101295.91
2023-02-22T14:01:48.754Z,101298.72
2023-02-22T14:03:50.120Z,101297.44
2023-02-22T14:05:53.474Z,101301.16
2023-02-22T14:07:55.111Z,101298.88
2023-02-22T14:09:57.759Z,101309.84
2023-02-22T14:11:59.308Z,101300.00
2023-02-22T14:14:00.861Z,101308.88
2023-02-22T14:16:02.483Z,101312.31
2023-02-22T14:18:05.906Z,101314.38
2023-02-22T14:20:13.345Z,101315.56
2023-02-22T14:22:25.517Z,101322.75
2023-02-22T14:24:26.921Z,101318.44
2023-02-22T14:26:34.512Z,101313.00
2023-02-22T14:28:50.787Z,101316.63
2023-02-22T14:31:17.409Z,101305.69
2023-02-22T14:33:52.003Z,101323.88
2023-02-22T14:35:53.754Z,101302.94
2023-02-22T14:37:58.188Z,101318.66
2023-02-22T14:40:05.096Z,101319.03
2023-02-22T14:42:30.331Z,101322.59
2023-02-22T14:44:41.977Z,101319.97
2023-02-22T14:46:46.376Z,101305.47
2023-02-22T14:48:51.736Z,101326.91
2023-02-22T14:51:19.081Z,101329.09
2023-02-22T14:53:44.787Z,101322.13
2023-02-22T14:55:54.731Z,101316.50
2023-02-22T14:58:07.867Z,101334.06
2023-02-22T15:00:24.140Z,101294.28
2023-02-22T15:02:25.646Z,101333.22
2023-02-22T15:04:30.420Z,101327.38
2023-02-22T15:06:32.746Z,101325.53
2023-02-22T15:08:34.201Z,101332.13
2023-02-22T15:10:47.694Z,101328.69
2023-02-22T15:13:03.664Z,101330.72
2023-02-22T15:15:16.614Z,101335.03
2023-02-22T15:17:24.220Z,101339.94
2023-02-22T15:19:28.956Z,101341.84
2023-02-22T15:21:32.099Z,101338.50
2023-02-22T15:23:44.376Z,101340.72
2023-02-22T15:25:49.883Z,101344.19
2023-02-22T15:27:51.619Z,101336.47
2023-02-22T15:29:59.694Z,101342.50
2023-02-22T15:32:01.205Z,101348.22
2023-02-22T15:34:17.007Z,101337.38
2023-02-22T15:36:19.990Z,101344.66
2023-02-22T15:38:28.006Z,101323.47
2023-02-22T15:40:32.603Z,101335.78
2023-02-22T15:42:47.582Z,101302.91
2023-02-22T15:44:51.934Z,101339.13
2023-02-22T15:46:53.394Z,101334.50
2023-02-22T15:49:10.242Z,101335.69
2023-02-22T15:51:14.432Z,101301.28
2023-02-22T15:53:29.293Z,101330.47
2023-02-22T15:55:34.486Z,101335.19
2023-02-22T15:57:36.027Z,101341.69
2023-02-22T15:59:43.579Z,101348.13
2023-02-22T16:01:48.589Z,101332.97
2023-02-22T16:03:53.124Z,101345.50
2023-02-22T16:05:55.881Z,101301.72
2023-02-22T16:07:58.232Z,101340.03
2023-02-22T16:10:00.300Z,101345.75
2023-02-22T16:12:26.038Z,101353.28
2023-02-22T16:14:41.324Z,101352.16
2023-02-22T16:16:42.815Z,101352.16
2023-02-22T16:18:44.321Z,101355.81
2023-02-22T16:20:46.002Z,101346.75
2023-02-22T16:22:49.793Z,101351.44
2023-02-22T16:24:51.254Z,101360.00
2023-02-22T16:27:24.925Z,101360.63
2023-02-22T16:29:26.816Z,101359.53
2023-02-22T16:31:31.582Z,101350.38
2023-02-22T16:33:33.197Z,101367.81
2023-02-22T16:35:34.821Z,101375.25
2023-02-22T16:37:36.339Z,101331.28
2023-02-22T16:39:37.802Z,101367.31
2023-02-22T16:41:39.478Z,101381.75
2023-02-22T16:43:43.118Z,101384.31
2023-02-22T16:45:44.671Z,101386.59
2023-02-22T16:47:46.481Z,101380.00
2023-02-22T16:49:49.885Z,101384.38
2023-02-22T16:51:54.207Z,101385.66
2023-02-22T16:53:56.414Z,101386.44
2023-02-22T16:56:03.073Z,101382.88
2023-02-22T16:58:04.866Z,101393.16
2023-02-22T17:00:09.060Z,101385.91
2023-02-22T17:02:14.292Z,101388.00
2023-02-22T17:04:21.788Z,101389.41
2023-02-22T17:06:23.502Z,101387.84
2023-02-22T17:08:25.411Z,101359.88
2023-02-22T17:10:26.890Z,101385.09
2023-02-22T17:12:30.115Z,101402.84
2023-02-22T17:14:34.924Z,101399.13
2023-02-22T17:16:36.499Z,101402.50
2023-02-22T17:18:39.205Z,101396.97
2023-02-22T17:20:40.586Z,101398.66
2023-02-22T17:22:43.059Z,101398.25
2023-02-22T17:24:44.754Z,101397.53
2023-02-22T17:26:46.461Z,101400.09
2023-02-22T17:28:48.029Z,101381.16
2023-02-22T17:30:50.053Z,101380.19
2023-02-22T17:32:52.047Z,101395.19
2023-02-22T17:34:53.614Z,101398.09
2023-02-22T17:36:55.094Z,101401.03
2023-02-22T17:38:56.660Z,101404.50
2023-02-22T17:40:59.471Z,101403.50
2023-02-22T17:43:01.368Z,101399.59
2023-02-22T17:45:02.810Z,101392.91
2023-02-22T17:47:04.395Z,101395.09
2023-02-22T17:49:06.346Z,101391.31
2023-02-22T17:51:10.324Z,101401.63
2023-02-22T17:53:12.628Z,101400.09
2023-02-22T17:55:14.160Z,101383.19
2023-02-22T17:57:15.562Z,101397.34
2023-02-22T17:59:17.036Z,101384.75
2023-02-22T18:01:24.386Z,101393.19
2023-02-22T18:03:29.267Z,101382.47
2023-02-22T18:05:31.552Z,101406.75
2023-02-22T18:07:33.032Z,101402.91
2023-02-22T18:09:34.456Z,101364.66
2023-02-22T18:11:38.351Z,101399.75
2023-02-22T18:13:39.865Z,101396.91
2023-02-22T18:15:41.271Z,101403.00
2023-02-22T18:17:43.966Z,101399.44
2023-02-22T18:19:45.543Z,101382.66
2023-02-22T18:21:47.019Z,101404.84
2023-02-22T18:23:48.678Z,101396.72
2023-02-22T18:26:09.214Z,101397.22
2023-02-22T18:28:11.830Z,101394.50
2023-02-22T18:30:13.660Z,101370.97
2023-02-22T18:32:15.271Z,101395.94
2023-02-22T18:34:16.686Z,101388.53
2023-02-22T18:36:20.132Z,101397.84
2023-02-22T18:38:22.302Z,101406.13
2023-02-22T18:40:23.680Z,101395.84
2023-02-22T18:42:26.815Z,101385.25
2023-02-22T18:44:28.286Z,101409.78
2023-02-22T18:46:29.819Z,101388.53
2023-02-22T18:48:31.825Z,101400.53
2023-02-22T18:50:33.282Z,101376.50
2023-02-22T18:52:35.600Z,101387.88
2023-02-22T18:54:41.329Z,101396.97
2023-02-22T18:56:42.921Z,101348.09
2023-02-22T18:58:44.321Z,101404.59
2023-02-22T19:00:48.653Z,101398.81
2023-02-22T19:02:50.389Z,101399.75
2023-02-22T19:04:52.075Z,101390.97
2023-02-22T19:06:56.636Z,101402.06
2023-02-22T19:09:00.709Z,101392.00
2023-02-22T19:11:03.952Z,101397.47
2023-02-22T19:13:05.642Z,101396.22
2023-02-22T19:15:07.390Z,101400.63
2023-02-22T19:17:08.906Z,101399.72
2023-02-22T19:19:10.409Z,101398.06
2023-02-22T19:21:13.208Z,101400.81
2023-02-22T19:23:14.632Z,101399.13
2023-02-22T19:25:16.269Z,101399.25
2023-02-22T19:27:17.724Z,101383.94
2023-02-22T19:29:19.818Z,101386.44
2023-02-22T19:31:26.326Z,101389.94
2023-02-22T19:33:28.073Z,101381.78
2023-02-22T19:35:29.821Z,101387.88
2023-02-22T19:37:32.395Z,101381.16
2023-02-22T19:39:34.018Z,101379.28
2023-02-22T19:41:35.437Z,101390.47
2023-02-22T19:43:36.966Z,101387.31
2023-02-22T19:45:39.564Z,101382.22
2023-02-22T19:47:41.004Z,101370.47
2023-02-22T19:49:42.455Z,101395.75
2023-02-22T19:51:44.150Z,101386.03
2023-02-22T19:53:46.298Z,101388.66
2023-02-22T19:55:47.772Z,101381.56
2023-02-22T19:57:49.317Z,101392.09
2023-02-22T19:59:51.142Z,101401.22
2023-02-22T20:01:53.515Z,101397.47
2023-02-22T20:03:58.839Z,101392.16
2023-02-22T20:06:00.324Z,101394.06
2023-02-22T20:08:01.826Z,101391.63
2023-02-22T20:10:04.976Z,101388.31
2023-02-22T20:12:07.044Z,101391.53
2023-02-22T20:14:08.530Z,101386.91
2023-02-22T20:16:10.995Z,101375.78
2023-02-22T20:18:12.412Z,101377.78
2023-02-22T20:20:13.907Z,101385.25
2023-02-22T20:22:15.366Z,101383.47
2023-02-22T20:24:16.755Z,101386.63
2023-02-22T20:26:21.994Z,101380.97
2023-02-22T20:28:23.904Z,101383.16
2023-02-22T20:30:25.311Z,101389.47
2023-02-22T20:32:27.154Z,101386.91
2023-02-22T20:34:29.235Z,101392.91
2023-02-22T20:36:30.795Z,101380.28
2023-02-22T20:38:32.401Z,101384.25
2023-02-22T20:40:33.960Z,101391.97
2023-02-22T20:42:35.386Z,101391.81
2023-02-22T20:44:37.176Z,101399.97
2023-02-22T20:46:38.670Z,101385.09
2023-02-22T20:48:40.123Z,101398.03
2023-02-22T20:50:41.588Z,101385.84
2023-02-22T20:52:43.080Z,101400.03
2023-02-22T20:54:44.461Z,101379.03
2023-02-22T20:56:47.066Z,101381.72
2023-02-22T20:58:49.163Z,101391.88
2023-02-22T21:00:50.692Z,101395.59
2023-02-22T21:02:52.216Z,101396.44
2023-02-22T21:04:53.709Z,101395.19
2023-02-22T21:06:55.126Z,101395.91
2023-02-22T21:08:59.762Z,101390.28
2023-02-22T21:11:01.610Z,101399.44
2023-02-22T21:13:05.516Z,101397.88
2023-02-22T21:15:07.553Z,101397.03
2023-02-22T21:17:09.320Z,101373.78
2023-02-22T21:19:10.835Z,101372.88
2023-02-22T21:21:12.798Z,101403.34
2023-02-22T21:23:15.794Z,101391.00
2023-02-22T21:25:17.216Z,101391.47
2023-02-22T21:27:18.843Z,101390.34
2023-02-22T21:29:20.487Z,101397.34
2023-02-22T21:31:24.806Z,101396.66
2023-02-22T21:33:27.893Z,101404.88
2023-02-22T21:35:29.913Z,101388.34
2023-02-22T21:37:31.310Z,101384.53
2023-02-22T21:39:32.884Z,101398.97
2023-02-22T21:41:34.655Z,101393.44
2023-02-22T21:43:36.036Z,101397.75
2023-02-22T21:45:38.291Z,101395.59
2023-02-22T21:47:39.882Z,101386.66
2023-02-22T21:49:41.297Z,101378.66
2023-02-22T21:51:43.059Z,101395.34
2023-02-22T21:53:45.885Z,101410.72
2023-02-22T21:55:47.310Z,101385.06
2023-02-22T21:57:48.834Z,101395.97
2023-02-22T21:59:50.382Z,101390.59
2023-02-22T22:01:56.463Z,101398.44
2023-02-22T22:03:58.740Z,101398.63
2023-02-22T22:06:00.266Z,101396.50
2023-02-22T22:08:01.714Z,101404.19
2023-02-22T22:10:03.457Z,101384.97
2023-02-22T22:12:05.455Z,101376.72
2023-02-22T22:14:06.951Z,101400.22
2023-02-22T22:16:14.117Z,101397.66
2023-02-22T22:18:15.614Z,101400.28
2023-02-22T22:20:17.075Z,101408.19
2023-02-22T22:22:18.488Z,101389.75
2023-02-22T22:24:21.175Z,101401.66
2023-02-22T22:26:23.856Z,101395.84
2023-02-22T22:28:25.440Z,101406.34
2023-02-22T22:30:26.957Z,101377.28
2023-02-22T22:32:29.130Z,101390.47
2023-02-22T22:34:30.762Z,101394.22
2023-02-22T22:36:32.227Z,101400.56
2023-02-22T22:38:33.651Z,101406.63
2023-02-22T22:40:35.435Z,101410.69
2023-02-22T22:42:36.906Z,101384.53
2023-02-22T22:44:38.291Z,101409.00
2023-02-22T22:46:39.905Z,101408.50
2023-02-22T22:48:41.462Z,101407.38
2023-02-22T22:50:42.882Z,101396.03
2023-02-22T22:52:45.539Z,101394.69
2023-02-22T22:54:47.029Z,101372.28
2023-02-22T22:56:48.426Z,101393.31
2023-02-22T22:58:57.116Z,101404.28
2023-02-22T23:00:58.561Z,101407.34
2023-02-22T23:03:00.074Z,101402.13
2023-02-22T23:05:01.779Z,101401.66
2023-02-22T23:07:03.541Z,101396.78
2023-02-22T23:09:07.071Z,101375.19
2023-02-22T23:11:09.338Z,101401.28
2023-02-22T23:13:11.552Z,101395.75
2023-02-22T23:15:13.000Z,101399.41
2023-02-22T23:17:16.113Z,101387.94
2023-02-22T23:19:18.502Z,101393.28
2023-02-22T23:21:20.616Z,101383.09
2023-02-22T23:23:24.426Z,101387.28
2023-02-22T23:25:25.815Z,101375.22
2023-02-22T23:27:27.211Z,101323.56
2023-02-22T23:29:28.780Z,101391.84
2023-02-22T23:31:30.251Z,101390.94
2023-02-22T23:33:31.719Z,101372.72
2023-02-22T23:35:33.380Z,101385.44
2023-02-22T23:37:34.833Z,101384.91
2023-02-22T23:39:36.628Z,101388.97
2023-02-22T23:41:38.110Z,101381.19
2023-02-22T23:43:40.605Z,101377.16
2023-02-22T23:45:42.094Z,101365.81
2023-02-22T23:47:43.480Z,101376.81
2023-02-22T23:49:45.011Z,101373.03
2023-02-22T23:51:46.981Z,101376.56
2023-02-22T23:53:48.371Z,101378.78
2023-02-22T23:55:49.845Z,101374.75